Time;durP1;ratioP1;P1;durP2;ratioP2;P2;SDS_P1;SDS_P2;PMS_P1;PMS_P2;Temp;Humidity;BMP_temperature;BMP_pressure;BME280_temperature;BME280_humidity;BME280_pressure;Samples;Min_cycle;Max_cycle;Signal;HPM_P1;HPM_P2
2022/05/20 00:01:45;;;;;;;56.55;39.88;;;;;;;13.03;93.26;102005.69;4965056;28;20087;-90
2022/05/20 00:04:10;;;;;;;51.47;38.53;;;;;;;13.03;93.23;102005.69;4975198;28;20026;-90
2022/05/20 00:06:36;;;;;;;51.72;38.40;;;;;;;12.98;93.67;102007.69;4983050;28;20046;-89
2022/05/20 00:09:02;;;;;;;52.47;35.95;;;;;;;12.93;93.42;101998.06;4980083;28;20136;-89
2022/05/20 00:11:27;;;;;;;53.05;38.33;;;;;;;12.93;93.12;102008.75;4990629;28;20041;-91
2022/05/20 00:13:53;;;;;;;52.85;37.90;;;;;;;12.90;93.05;102006.22;4988636;28;20476;-90
2022/05/20 00:16:18;;;;;;;52.17;38.33;;;;;;;12.90;92.91;102011.56;4988458;28;20041;-90
2022/05/20 00:18:43;;;;;;;51.60;38.67;;;;;;;12.84;93.02;101998.47;4985176;28;20404;-90
2022/05/20 00:21:08;;;;;;;48.95;37.45;;;;;;;12.83;93.40;102004.75;4981499;28;20034;-90
2022/05/20 00:23:35;;;;;;;49.03;36.88;;;;;;;12.80;93.29;102001.34;4990073;28;20022;-90
2022/05/20 00:26:01;;;;;;;49.75;36.65;;;;;;;12.76;93.52;101997.03;4974193;28;20283;-90
2022/05/20 00:28:28;;;;;;;50.42;36.17;;;;;;;12.76;93.08;102000.59;4988437;28;20065;-90
2022/05/20 00:30:58;;;;;;;51.92;37.38;;;;;;;12.73;93.13;101990.03;4988472;28;20105;-90
2022/05/20 00:33:25;;;;;;;55.25;38.00;;;;;;;12.75;93.55;101996.19;4976767;28;20023;-91
2022/05/20 00:35:51;;;;;;;54.40;37.50;;;;;;;12.69;93.54;101991.06;4969964;28;20035;-89
2022/05/20 00:38:16;;;;;;;52.60;36.20;;;;;;;12.70;93.05;101993.66;4985306;28;20073;-89
2022/05/20 00:40:42;;;;;;;50.72;35.97;;;;;;;12.66;93.06;101981.38;4981768;28;20031;-90
2022/05/20 00:43:15;;;;;;;51.08;37.38;;;;;;;12.64;93.75;101991.28;4982175;28;20373;-91
2022/05/20 00:45:43;;;;;;;51.72;36.83;;;;;;;12.58;93.48;101985.28;4974210;28;20045;-90
2022/05/20 00:48:08;;;;;;;53.92;37.30;;;;;;;12.54;93.97;101997.03;4973803;28;20076;-91
2022/05/20 00:50:38;;;;;;;50.88;38.03;;;;;;;12.55;94.23;101996.13;4990192;28;20054;-90
2022/05/20 00:53:03;;;;;;;56.05;38.10;;;;;;;12.54;94.44;101983.69;4980563;28;20500;-91
2022/05/20 00:55:29;;;;;;;50.80;38.00;;;;;;;12.53;93.99;101996.16;4984509;28;20046;-91
2022/05/20 00:58:03;;;;;;;54.28;38.60;;;;;;;12.51;94.33;101997.19;4987337;28;20026;-91
2022/05/20 01:00:35;;;;;;;55.53;40.50;;;;;;;12.50;94.93;101999.00;4976815;28;20030;-90
2022/05/20 01:03:03;;;;;;;59.40;40.55;;;;;;;12.46;94.73;102000.91;4981103;28;20023;-90
2022/05/20 01:05:36;;;;;;;55.45;40.33;;;;;;;12.47;94.55;101996.44;4975729;28;20396;-92
2022/05/20 01:08:03;;;;;;;54.75;38.97;;;;;;;12.42;93.88;101999.28;4985970;28;20038;-90
2022/05/20 01:10:29;;;;;;;54.22;38.67;;;;;;;12.41;94.22;101997.53;4983829;28;20114;-90
2022/05/20 01:12:56;;;;;;;52.60;37.92;;;;;;;12.45;94.40;101993.81;4987904;28;20360;-91
2022/05/20 01:15:21;;;;;;;65.60;42.25;;;;;;;12.44;94.17;102001.88;4983891;28;20091;-91
2022/05/20 01:17:50;;;;;;;58.25;42.78;;;;;;;12.41;94.55;101997.53;4974546;28;20030;-91
2022/05/20 01:20:20;;;;;;;58.00;39.50;;;;;;;12.41;94.74;102002.88;4974189;28;20455;-90
2022/05/20 01:23:00;;;;;;;51.78;37.03;;;;;;;12.43;94.41;102003.69;4988131;28;20027;-91
2022/05/20 01:25:28;;;;;;;50.25;36.10;;;;;;;12.41;94.20;101997.53;4981320;28;20495;-92
2022/05/20 01:27:54;;;;;;;52.33;35.78;;;;;;;12.40;94.23;101992.25;4981501;28;20438;-91
2022/05/20 01:30:22;;;;;;;51.95;37.80;;;;;;;12.38;94.67;101995.00;4990588;28;20109;-90
2022/05/20 01:32:48;;;;;;;51.97;36.10;;;;;;;12.35;94.93;101991.59;4971738;28;20050;-92
2022/05/20 01:35:36;;;;;;;49.13;36.30;;;;;;;12.32;94.98;101983.69;4990064;28;20034;-90
2022/05/20 01:38:03;;;;;;;47.75;35.13;;;;;;;12.27;94.72;101983.00;4975737;28;20026;-90
2022/05/20 01:40:39;;;;;;;49.20;35.95;;;;;;;12.23;94.95;101979.59;4978709;28;20029;-91
2022/05/20 01:43:16;;;;;;;48.38;36.45;;;;;;;12.18;95.07;101973.56;4978256;28;20051;-90
2022/05/20 01:45:57;;;;;;;51.88;36.60;;;;;;;12.16;95.39;101972.75;4985593;28;20030;-91
2022/05/20 01:48:51;;;;;;;50.53;36.40;;;;;;;12.13;95.58;101971.09;4972515;28;20026;-91
2022/05/20 01:51:20;;;;;;;52.22;36.63;;;;;;;12.10;95.79;101960.53;4985417;28;20058;-89
2022/05/20 01:53:54;;;;;;;52.05;36.83;;;;;;;12.07;95.98;101960.63;4988706;28;20442;-92
2022/05/20 01:56:30;;;;;;;49.10;35.08;;;;;;;12.05;95.83;101953.63;4975561;28;20062;-90
2022/05/20 01:59:09;;;;;;;49.03;36.13;;;;;;;11.99;95.79;101954.72;4977267;28;20085;-91
2022/05/20 02:01:40;;;;;;;49.55;35.33;;;;;;;11.94;95.75;101951.38;4983685;28;20077;-91
2022/05/20 02:04:23;;;;;;;47.28;33.58;;;;;;;11.96;95.37;101952.19;4985463;28;20117;-92
2022/05/20 02:07:05;;;;;;;46.63;34.57;;;;;;;11.98;95.49;101962.81;4969159;28;20038;-92
2022/05/20 02:09:53;;;;;;;43.10;33.10;;;;;;;11.94;95.09;101957.56;4984723;28;20427;-91
2022/05/20 02:12:22;;;;;;;46.13;33.10;;;;;;;11.90;95.10;101947.94;4974196;28;20054;-91
2022/05/20 02:14:58;;;;;;;42.90;32.33;;;;;;;11.84;95.50;101948.22;4980311;28;20041;-90
2022/05/20 02:17:31;;;;;;;46.50;33.05;;;;;;;11.84;95.43;101947.34;4976813;28;20531;-91
2022/05/20 02:20:12;;;;;;;47.85;33.05;;;;;;;11.81;95.53;101942.09;4984585;28;20369;-92
2022/05/20 02:22:43;;;;;;;46.08;33.80;;;;;;;11.78;95.86;101943.06;4975926;28;20027;-91
2022/05/20 02:25:12;;;;;;;43.70;34.00;;;;;;;11.77;95.75;101944.00;4975199;28;20134;-92
2022/05/20 02:27:42;;;;;;;45.22;32.22;;;;;;;11.71;95.49;101953.09;4984494;28;20089;-90
2022/05/20 02:30:13;;;;;;;43.85;31.45;;;;;;;11.66;95.20;101944.41;4987930;28;20342;-90
2022/05/20 02:32:54;;;;;;;44.88;32.53;;;;;;;11.65;95.25;101947.13;4980118;28;20039;-92
2022/05/20 02:35:19;;;;;;;40.20;31.10;;;;;;;11.59;95.23;101948.25;4985336;28;20029;-90
2022/05/20 02:37:44;;;;;;;45.20;32.90;;;;;;;11.59;95.63;101947.38;4977020;28;20365;-91
2022/05/20 02:40:13;;;;;;;44.30;32.92;;;;;;;11.57;95.62;101946.53;4969025;28;20030;-91
2022/05/20 02:42:39;;;;;;;50.75;34.80;;;;;;;11.59;96.09;101953.56;4974687;28;20080;-90
2022/05/20 02:45:05;;;;;;;44.35;32.38;;;;;;;11.58;96.03;101956.28;4988396;28;20050;-89
2022/05/20 02:47:33;;;;;;;45.63;33.03;;;;;;;11.55;95.72;101954.59;4969235;28;20046;-91
2022/05/20 02:50:02;;;;;;;45.13;34.05;;;;;;;11.53;95.59;101950.25;4988642;28;20027;-91
2022/05/20 02:52:28;;;;;;;45.50;33.70;;;;;;;11.52;96.19;101944.03;4987675;28;20042;-90
2022/05/20 02:54:53;;;;;;;46.88;33.92;;;;;;;11.46;95.96;101939.81;4980481;28;20572;-92
2022/05/20 02:57:18;;;;;;;47.95;36.20;;;;;;;11.49;96.22;101941.50;4982294;28;20026;-91
2022/05/20 03:05:25;;;;;;;45.58;33.28;;;;;;;11.44;96.12;101932.81;4873696;29;20050;-91
2022/05/20 03:07:50;;;;;;;47.08;33.85;;;;;;;11.41;96.22;101930.22;4873444;29;20049;-92
2022/05/20 03:10:16;;;;;;;45.05;33.28;;;;;;;11.46;96.43;101933.63;4874947;29;20040;-91
2022/05/20 03:12:41;;;;;;;45.50;33.72;;;;;;;11.48;96.18;101937.97;4874664;29;20226;-92
2022/05/20 03:15:11;;;;;;;43.72;32.25;;;;;;;11.47;96.25;101936.22;4874577;29;20044;-91
2022/05/20 03:17:37;;;;;;;45.45;32.97;;;;;;;11.50;96.58;101948.59;4873885;29;20638;-90
2022/05/20 03:20:05;;;;;;;46.63;31.83;;;;;;;11.54;97.18;101950.22;4858961;29;20037;-90
2022/05/20 03:22:32;;;;;;;43.28;32.15;;;;;;;11.55;96.86;101940.41;4874874;29;20037;-92
2022/05/20 03:24:58;;;;;;;42.90;32.50;;;;;;;11.55;96.49;101940.41;4874219;29;20077;-91
2022/05/20 03:27:23;;;;;;;43.67;31.77;;;;;;;11.50;96.17;101931.72;4856070;29;20491;-91
2022/05/20 03:29:48;;;;;;;44.50;33.67;;;;;;;11.47;96.35;101932.69;4874107;29;20112;-91
2022/05/20 03:32:13;;;;;;;44.75;32.33;;;;;;;11.40;96.59;101934.69;4874857;29;20468;-91
2022/05/20 03:34:40;;;;;;;43.38;32.70;;;;;;;11.39;96.54;101937.44;4873411;29;20088;-90
2022/05/20 03:37:06;;;;;;;46.03;32.50;;;;;;;11.37;96.66;101932.19;4873782;29;20037;-90
2022/05/20 03:39:32;;;;;;;59.97;36.58;;;;;;;11.37;97.05;101933.94;4977312;28;20097;-91
2022/05/20 03:41:57;;;;;;;58.85;38.67;;;;;;;11.34;97.30;101926.94;4973875;28;20035;-91
2022/05/20 03:44:23;;;;;;;54.58;35.95;;;;;;;11.35;97.49;101928.69;4986847;28;20291;-91
2022/05/20 03:46:51;;;;;;;54.97;37.20;;;;;;;11.28;97.57;101921.81;4961029;28;20034;-92
2022/05/20 03:49:18;;;;;;;58.90;37.35;;;;;;;11.26;97.62;101912.16;4992482;28;20038;-92
2022/05/20 03:51:45;;;;;;;57.30;36.85;;;;;;;11.22;97.64;101914.94;4993118;28;20192;-90
2022/05/20 03:54:11;;;;;;;57.90;35.45;;;;;;;11.17;97.53;101914.25;4974876;28;20464;-92
2022/05/20 03:56:40;;;;;;;52.45;34.33;;;;;;;11.14;97.54;101908.16;4972835;28;20279;-90
2022/05/20 03:59:08;;;;;;;53.47;35.45;;;;;;;11.11;97.81;101908.25;4984544;28;20027;-91
2022/05/20 04:04:18;;;;;;;75.68;33.15;;;;;;;11.00;98.36;101894.47;4987554;28;20037;-91
2022/05/20 04:06:43;;;;;;;53.08;34.10;;;;;;;11.00;98.02;101890.00;4980909;28;20384;-90
2022/05/20 04:09:08;;;;;;;48.80;33.33;;;;;;;11.02;98.01;101892.59;4984971;28;20027;-90
2022/05/20 04:11:34;;;;;;;45.45;32.28;;;;;;;11.00;98.06;101895.34;4985441;28;20080;-91
2022/05/20 04:14:01;;;;;;;50.03;32.67;;;;;;;11.03;97.72;101905.00;4971925;28;20041;-91
2022/05/20 04:16:26;;;;;;;44.90;29.60;;;;;;;11.00;97.62;101899.78;4976402;28;20026;-92
2022/05/20 04:18:51;;;;;;;42.63;30.05;;;;;;;10.97;97.63;101906.09;4980139;28;20490;-91
2022/05/20 04:21:17;;;;;;;47.85;31.15;;;;;;;10.89;97.85;101890.38;4982005;28;20049;-91
2022/05/20 04:23:42;;;;;;;47.65;30.75;;;;;;;10.89;98.32;101898.38;4974263;28;20027;-90
2022/05/20 04:26:09;;;;;;;52.10;29.85;;;;;;;10.89;98.42;101893.03;4972866;28;20193;-90
2022/05/20 04:28:34;;;;;;;42.50;31.40;;;;;;;10.92;98.64;101884.94;4980698;28;20526;-91
2022/05/20 04:31:02;;;;;;;44.85;30.52;;;;;;;10.94;98.60;101876.88;4984309;28;20142;-90
2022/05/20 04:33:28;;;;;;;52.53;30.40;;;;;;;10.89;98.91;101882.38;4982768;28;20077;-91
2022/05/20 04:35:53;;;;;;;40.53;30.17;;;;;;;10.90;99.16;101884.13;4985045;28;20619;-91
2022/05/20 04:38:19;;;;;;;40.55;29.85;;;;;;;10.98;99.47;101887.38;4988815;28;20039;-89
2022/05/20 04:46:56;;;;;;;43.13;30.40;;;;;;;11.03;99.41;101881.00;4970427;28;20022;-90
2022/05/20 04:48:58;;;;;;;44.00;31.70;;;;;;;11.14;98.71;101885.03;4975037;28;20435;-91
2022/05/20 04:51:23;;;;;;;44.33;31.90;;;;;;;11.20;98.64;101887.50;4987914;28;20054;-91
2022/05/20 04:56:32;;;;;;;40.80;32.45;;;;;;;11.28;98.62;101886.31;4985499;28;20057;-90
2022/05/20 04:58:58;;;;;;;41.92;32.35;;;;;;;11.36;98.72;101887.75;4979651;28;20027;-91
2022/05/20 05:01:23;;;;;;;43.67;34.15;;;;;;;11.47;98.48;101895.38;4965525;28;20120;-90
2022/05/20 05:03:48;;;;;;;46.00;34.92;;;;;;;11.52;98.75;101898.72;4955693;28;20034;-90
2022/05/20 05:06:14;;;;;;;44.47;34.58;;;;;;;11.56;98.30;101902.16;4986649;28;20420;-90
2022/05/20 05:08:39;;;;;;;49.92;35.92;;;;;;;11.61;98.39;101908.16;4978625;28;20039;-91
2022/05/20 05:11:04;;;;;;;50.63;36.40;;;;;;;11.66;98.46;101901.75;4971522;28;20065;-90
2022/05/20 05:13:29;;;;;;;49.03;36.55;;;;;;;11.68;98.47;101897.22;4991093;28;20157;-91
2022/05/20 05:15:55;;;;;;;49.97;37.47;;;;;;;11.69;98.34;101901.59;4982630;28;20456;-90
2022/05/20 05:18:23;;;;;;;52.15;38.42;;;;;;;11.78;98.64;101913.72;4973768;28;20030;-91
2022/05/20 05:20:50;;;;;;;53.67;39.38;;;;;;;11.86;98.54;101908.97;4989011;28;20077;-92
2022/05/20 05:23:16;;;;;;;51.92;38.63;;;;;;;11.95;98.34;101907.75;4988642;28;20035;-90
2022/05/20 05:25:43;;;;;;;55.22;39.85;;;;;;;12.04;98.42;101893.16;4973348;28;20034;-90
2022/05/20 05:28:09;;;;;;;49.72;37.70;;;;;;;12.09;98.03;101886.75;4983494;28;20045;-91
2022/05/20 05:30:35;;;;;;;52.80;39.80;;;;;;;12.18;98.25;101889.03;4982085;28;20453;-91
2022/05/20 05:33:00;;;;;;;53.60;39.58;;;;;;;12.27;97.99;101898.47;4978249;28;20061;-90
2022/05/20 05:35:29;;;;;;;51.80;39.10;;;;;;;12.30;97.83;101906.34;4983047;28;20030;-91
2022/05/20 05:37:55;;;;;;;57.03;42.08;;;;;;;12.33;97.76;101892.88;4976588;28;20074;-89
2022/05/20 05:40:23;;;;;;;55.25;40.53;;;;;;;12.51;98.15;101893.03;4983075;28;20551;-88
2022/05/20 05:42:49;;;;;;;58.65;43.40;;;;;;;12.77;97.83;101883.91;4982004;28;20066;-91
2022/05/20 05:45:19;;;;;;;63.85;43.78;;;;;;;12.96;97.76;101866.13;4977584;28;20437;-92
2022/05/20 05:47:49;;;;;;;50.13;40.05;;;;;;;12.99;96.65;101873.13;4983304;28;20069;-91
2022/05/20 05:50:14;;;;;;;55.03;41.55;;;;;;;13.04;97.45;101866.66;4985867;28;20106;-92
2022/05/20 05:52:39;;;;;;;59.13;43.17;;;;;;;13.15;97.04;101859.00;4977318;28;20424;-91
2022/05/20 05:55:05;;;;;;;56.67;41.47;;;;;;;13.34;96.63;101880.47;4965990;28;20161;-91
2022/05/20 05:57:30;;;;;;;51.35;39.65;;;;;;;13.53;94.80;101880.47;4987038;28;20503;-93
2022/05/20 05:59:56;;;;;;;52.03;38.75;;;;;;;13.76;94.36;101875.88;4985838;28;20022;-90
2022/05/20 06:02:21;;;;;;;49.53;38.17;;;;;;;13.98;93.97;101868.53;4988846;28;20033;-91
2022/05/20 06:04:47;;;;;;;46.33;37.10;;;;;;;14.11;93.34;101868.78;4990424;28;20034;-91
2022/05/20 06:07:14;;;;;;;49.28;37.97;;;;;;;14.30;93.08;101858.03;4950736;28;20034;-90
2022/05/20 06:09:40;;;;;;;47.65;35.03;;;;;;;14.48;91.98;101862.44;4965298;28;20481;-90
2022/05/20 06:12:07;;;;;;;39.30;30.45;;;;;;;14.61;88.65;101860.91;4981056;28;20043;-91
2022/05/20 06:14:32;;;;;;;37.05;29.65;;;;;;;14.75;88.08;101862.88;4981666;28;20392;-92
2022/05/20 06:16:57;;;;;;;38.65;29.35;;;;;;;14.93;88.07;101853.00;4982783;28;20037;-92
2022/05/20 06:19:23;;;;;;;33.65;27.15;;;;;;;15.13;86.83;101859.97;4988421;28;20038;-91
2022/05/20 06:21:49;;;;;;;31.20;25.73;;;;;;;15.36;84.10;101859.59;4982885;28;20034;-92
2022/05/20 06:24:14;;;;;;;33.60;26.80;;;;;;;15.66;84.96;101856.19;4987380;28;20030;-92
2022/05/20 06:26:41;;;;;;;30.77;25.02;;;;;;;15.78;81.72;101847.44;4968263;28;20054;-91
2022/05/20 06:29:06;;;;;;;32.53;24.77;;;;;;;15.97;80.46;101849.06;4988001;28;20030;-91
2022/05/20 06:31:32;;;;;;;27.83;23.27;;;;;;;16.11;79.49;101849.16;4988043;28;20039;-90
2022/05/20 06:34:00;;;;;;;30.67;23.40;;;;;;;16.24;77.90;101852.84;4985312;28;20034;-91
2022/05/20 06:41:54;;;;;;;20.42;17.65;;;;;;;16.49;72.51;101849.59;4982616;28;20043;-84
2022/05/20 06:44:20;;;;;;;21.27;17.27;;;;;;;16.60;73.59;101844.44;4976783;28;20442;-84
2022/05/20 06:46:46;;;;;;;22.27;18.33;;;;;;;16.71;71.23;101835.72;4983428;28;20041;-85
2022/05/20 06:49:12;;;;;;;22.60;17.05;;;;;;;16.73;73.32;101841.91;4984052;28;20034;-84
2022/05/20 06:51:38;;;;;;;20.73;15.88;;;;;;;16.65;72.80;101836.09;4984027;28;20396;-85
2022/05/20 06:54:06;;;;;;;20.58;16.60;;;;;;;16.79;73.26;101837.97;4983436;28;20066;-84
2022/05/20 06:56:32;;;;;;;19.73;15.65;;;;;;;17.04;72.34;101834.63;4981470;28;20105;-84
2022/05/20 06:58:59;;;;;;;16.80;13.32;;;;;;;17.07;67.82;101834.44;4981389;28;20046;-87
2022/05/20 07:01:25;;;;;;;15.88;12.98;;;;;;;17.18;68.58;101830.13;4984450;28;20435;-91
2022/05/20 07:03:51;;;;;;;16.70;12.93;;;;;;;17.48;69.06;101830.97;4984313;28;20399;-91
2022/05/20 07:06:17;;;;;;;17.50;13.40;;;;;;;17.77;65.90;101818.34;4983229;28;20491;-90
2022/05/20 07:08:48;;;;;;;15.05;12.18;;;;;;;18.12;65.85;101813.28;4983926;28;20034;-90
2022/05/20 07:11:18;;;;;;;14.65;11.18;;;;;;;18.27;61.61;101801.47;4975811;28;20031;-90
2022/05/20 07:13:44;;;;;;;14.65;11.38;;;;;;;18.37;63.16;101807.97;4984171;28;20034;-90
2022/05/20 07:16:09;;;;;;;14.32;10.23;;;;;;;18.35;61.88;101801.81;4981860;28;20401;-91
2022/05/20 07:18:34;;;;;;;11.40;9.40;;;;;;;18.33;60.55;101797.50;4987767;28;20038;-91
2022/05/20 07:21:00;;;;;;;12.82;9.85;;;;;;;18.53;60.30;101794.28;4984091;28;20096;-90
2022/05/20 07:23:28;;;;;;;12.13;8.93;;;;;;;19.12;61.22;101797.34;4979985;28;20026;-91
2022/05/20 07:25:53;;;;;;;11.68;9.50;;;;;;;19.50;58.36;101791.00;4984496;28;20045;-89
2022/05/20 07:28:19;;;;;;;16.60;9.90;;;;;;;19.68;57.63;101805.00;4983568;28;20030;-90
2022/05/20 07:30:44;;;;;;;14.85;10.57;;;;;;;19.70;57.48;101794.97;4986050;28;20031;-89
2022/05/20 07:33:10;;;;;;;12.77;10.98;;;;;;;20.00;58.14;101783.69;4987065;28;20041;-90
2022/05/20 07:35:36;;;;;;;13.90;10.43;;;;;;;20.36;55.84;101785.44;4982808;28;20037;-89
2022/05/20 07:38:02;;;;;;;13.95;10.50;;;;;;;20.26;55.24;101781.69;4980182;28;20026;-89
2022/05/20 07:40:28;;;;;;;14.02;10.43;;;;;;;20.44;55.80;101783.94;4987252;28;20034;-89
2022/05/20 07:42:54;;;;;;;13.93;10.75;;;;;;;20.62;54.75;101787.97;4990607;28;20030;-91
2022/05/20 07:45:19;;;;;;;14.68;10.35;;;;;;;21.17;53.39;101789.00;4970861;28;20493;-91
2022/05/20 07:47:45;;;;;;;13.43;10.27;;;;;;;21.18;53.55;101769.03;4971638;28;20038;-92
2022/05/20 07:50:11;;;;;;;15.13;11.35;;;;;;;20.73;53.09;101768.16;4989560;28;20030;-90
2022/05/20 07:55:26;;;;;;;14.60;11.55;;;;;;;20.73;54.83;101766.31;4991846;28;20045;-94
2022/05/20 07:57:53;;;;;;;14.93;11.75;;;;;;;21.30;54.25;101772.59;5010595;28;20030;-93
2022/05/20 08:00:20;;;;;;;13.77;12.30;;;;;;;21.32;52.07;101766.13;5003319;28;20038;-95
2022/05/20 08:02:45;;;;;;;15.65;12.20;;;;;;;21.25;52.92;101758.59;4998986;28;20030;-94
2022/05/20 08:05:11;;;;;;;17.08;12.85;;;;;;;21.49;50.44;101755.75;4998866;28;20037;-96
2022/05/20 08:07:41;;;;;;;17.33;13.13;;;;;;;21.54;51.69;101748.97;4995886;28;20285;-95
2022/05/20 08:10:12;;;;;;;15.85;13.75;;;;;;;21.55;51.13;101747.09;5000426;28;20022;-95
2022/05/20 08:12:38;;;;;;;20.05;15.50;;;;;;;21.80;50.70;101744.06;4994621;28;20034;-94
2022/05/20 08:15:04;;;;;;;19.63;15.55;;;;;;;21.92;49.69;101738.59;5000635;28;20089;-95
2022/05/20 08:17:30;;;;;;;18.70;15.43;;;;;;;22.30;48.96;101743.50;4996529;28;20058;-95
2022/05/20 08:19:55;;;;;;;16.98;14.40;;;;;;;22.82;48.43;101728.94;5004582;28;20029;-93
2022/05/20 08:22:22;;;;;;;18.25;14.57;;;;;;;22.80;48.69;101739.06;4991973;28;20026;-95
2022/05/20 08:24:52;;;;;;;17.52;14.30;;;;;;;22.76;49.87;101737.63;5049353;22;20118;-94
2022/05/20 08:27:22;;;;;;;18.88;15.07;;;;;;;22.81;49.45;101729.91;4979996;28;20118;-93
2022/05/20 08:29:49;;;;;;;18.42;16.45;;;;;;;22.77;48.16;101722.19;4984045;28;20051;-95
2022/05/20 08:32:15;;;;;;;24.25;16.73;;;;;;;22.44;49.36;101716.03;4987216;28;20033;-96
2022/05/20 08:34:42;;;;;;;20.52;16.50;;;;;;;22.14;49.79;101716.84;4995619;28;20017;-95
2022/05/20 08:37:08;;;;;;;20.38;15.93;;;;;;;21.91;51.12;101718.78;4979877;28;20034;-91
2022/05/20 08:39:33;;;;;;;20.10;16.10;;;;;;;21.57;51.12;101715.31;4970483;28;20133;-92
2022/05/20 08:41:58;;;;;;;18.17;15.68;;;;;;;21.26;52.56;101708.84;4969368;28;20043;-94
2022/05/20 08:44:24;;;;;;;19.73;16.38;;;;;;;20.94;52.65;101701.50;4969108;28;20057;-88
2022/05/20 08:46:51;;;;;;;22.23;17.25;;;;;;;20.77;53.23;101702.88;4968527;28;20712;-89
2022/05/20 08:49:19;;;;;;;19.98;17.33;;;;;;;20.69;54.47;101689.09;4971688;28;20058;-91
2022/05/20 08:51:50;;;;;;;23.25;17.67;;;;;;;20.91;54.25;101681.97;4979227;28;20038;-92
2022/05/20 08:54:17;;;;;;;23.80;17.20;;;;;;;21.12;54.29;101677.53;4987844;28;20046;-91
2022/05/20 08:56:43;;;;;;;23.52;17.10;;;;;;;21.97;52.18;101674.88;4970925;28;20275;-93
2022/05/20 08:59:12;;;;;;;19.98;16.67;;;;;;;23.28;49.58;101670.53;4971043;28;20051;-92
2022/05/20 09:01:40;;;;;;;19.95;15.60;;;;;;;23.99;45.12;101685.72;4974824;28;20035;-92
2022/05/20 09:04:07;;;;;;;19.50;15.65;;;;;;;23.27;47.03;101679.66;4966500;28;20097;-93
2022/05/20 09:06:38;;;;;;;19.17;15.48;;;;;;;22.66;49.24;101668.88;4972665;28;20027;-94
2022/05/20 09:09:14;;;;;;;19.30;15.40;;;;;;;22.78;50.67;101662.38;4977127;28;20493;-95
2022/05/20 09:11:42;;;;;;;22.50;16.00;;;;;;;22.80;50.80;101667.66;4973676;28;20037;-92
2022/05/20 09:16:57;;;;;;;23.38;16.65;;;;;;;24.33;47.95;101648.00;4976934;28;20056;-93
2022/05/20 09:19:28;;;;;;;21.80;17.13;;;;;;;25.34;45.25;101643.50;4975828;28;20026;-94
2022/05/20 09:22:24;;;;;;;20.40;16.58;;;;;;;26.35;43.40;101637.69;4971797;28;20035;-95
2022/05/20 09:24:49;;;;;;;22.20;17.52;;;;;;;25.63;42.61;101636.97;4967070;28;20070;-95
2022/05/20 09:27:26;;;;;;;26.02;18.83;;;;;;;25.20;44.69;101639.44;4972178;28;20152;-93
2022/05/20 09:29:59;;;;;;;20.10;14.85;;;;;;;24.87;46.20;101629.16;4978387;28;20033;-94
2022/05/20 09:32:27;;;;;;;;;;;;;;;25.72;46.10;101611.47;4978420;28;20023;-94
2022/05/20 09:34:58;;;;;;;22.58;15.18;;;;;;;24.91;44.61;101614.22;4970852;28;20331;-93
2022/05/20 09:37:27;;;;;;;20.10;15.05;;;;;;;23.90;46.78;101605.03;4986848;28;20022;-94
2022/05/20 09:39:52;;;;;;;18.75;15.18;;;;;;;24.74;45.57;101608.59;4972319;28;20034;-93
2022/05/20 09:42:22;;;;;;;20.42;15.35;;;;;;;26.10;42.90;101601.22;4969062;28;20041;-95
2022/05/20 09:44:56;;;;;;;18.70;15.13;;;;;;;26.69;41.20;101592.13;4969567;28;20480;-94
2022/05/20 09:47:46;;;;;;;18.90;14.57;;;;;;;28.37;40.15;101582.66;4978135;28;20046;-93
2022/05/20 09:50:17;;;;;;;18.23;13.80;;;;;;;29.27;37.09;101570.19;4969155;28;20035;-95
2022/05/20 09:53:01;;;;;;;16.95;14.10;;;;;;;29.62;37.02;101562.38;4965766;28;20441;-95
2022/05/20 09:55:34;;;;;;;19.83;13.70;;;;;;;30.24;35.84;101562.09;4971081;28;20038;-94
2022/05/20 09:58:14;;;;;;;22.20;14.63;;;;;;;29.49;37.79;101543.78;4974908;28;20031;-95
2022/05/20 10:00:47;;;;;;;21.17;14.68;;;;;;;29.28;36.28;101530.75;4967860;28;20042;-95
2022/05/20 10:03:28;;;;;;;17.52;14.25;;;;;;;28.33;38.70;101527.38;4965832;28;20042;-96
2022/05/20 10:06:12;;;;;;;16.38;14.20;;;;;;;27.16;40.38;101516.97;4972623;28;20496;-96
2022/05/20 10:08:46;;;;;;;17.77;15.25;;;;;;;26.31;42.17;101501.56;4971761;28;20031;-96
2022/05/20 10:11:25;;;;;;;17.35;13.90;;;;;;;26.65;42.33;101491.63;4977805;28;20061;-93
2022/05/20 10:14:15;;;;;;;18.50;14.30;;;;;;;26.56;42.58;101486.13;4965844;28;20034;-96
2022/05/20 10:16:54;;;;;;;19.48;13.70;;;;;;;27.12;40.38;101445.41;5085018;22;20058;-96
2022/05/20 10:19:33;;;;;;;19.90;13.75;;;;;;;27.12;40.39;101482.81;5005107;28;20034;-96
2022/05/20 10:22:23;;;;;;;20.52;14.23;;;;;;;26.08;43.15;101441.28;5017611;23;20115;-94
2022/05/20 10:25:14;;;;;;;22.50;14.98;;;;;;;25.30;44.69;101452.22;5038098;22;20030;-96
2022/05/20 10:32:34;;;;;;;20.92;14.90;;;;;;;24.99;46.50;101465.38;5141110;22;20042;-94
2022/05/20 10:33:51;;;;;;;19.75;15.23;;;;;;;24.27;46.52;101441.84;5018825;28;20159;-95
2022/05/20 10:36:29;;;;;;;20.42;14.68;;;;;;;24.58;46.74;101450.56;5027143;28;20045;-96
2022/05/20 10:39:42;;;;;;;18.55;14.80;;;;;;;24.59;47.41;101430.50;5009701;28;20022;-96
2022/05/20 10:42:26;;;;;;;21.93;15.07;;;;;;;24.94;46.49;101429.59;5011653;28;20044;-94
2022/05/20 10:48:34;;;;;;;24.02;15.65;;;;;;;24.47;47.93;101401.78;5015246;28;20099;-95
2022/05/20 10:51:12;;;;;;;22.10;16.02;;;;;;;24.40;47.91;101385.22;5000876;28;20037;-93
2022/05/20 10:53:53;;;;;;;21.20;16.23;;;;;;;24.43;47.72;101360.44;5005118;28;20436;-89
2022/05/20 10:56:43;;;;;;;20.05;16.13;;;;;;;24.53;47.52;101352.19;5007202;28;20040;-94
2022/05/20 10:59:41;;;;;;;22.45;16.95;;;;;;;24.44;48.02;101337.66;5011483;28;20050;-94
2022/05/20 11:02:19;;;;;;;21.00;16.67;;;;;;;24.62;48.70;101320.44;5009303;28;20033;-94
2022/05/20 11:05:14;;;;;;;22.63;17.40;;;;;;;24.90;47.95;101321.16;5016709;28;20531;-95
2022/05/20 11:07:54;;;;;;;20.75;17.60;;;;;;;25.29;47.24;101321.59;5018601;28;20093;-94
2022/05/20 11:10:57;;;;;;;22.88;18.65;;;;;;;25.55;47.34;101303.34;5012804;28;20037;-95
2022/05/20 11:13:42;;;;;;;28.55;20.05;;;;;;;25.45;47.06;101286.25;4999975;28;20037;-87
2022/05/20 11:16:29;;;;;;;24.65;20.50;;;;;;;25.29;46.63;101292.50;5008574;28;20266;-91
2022/05/20 11:19:22;;;;;;;24.67;19.65;;;;;;;25.40;47.65;101279.59;5008161;28;20049;-90
2022/05/20 11:22:14;;;;;;;24.63;19.85;;;;;;;25.21;48.73;101267.94;5009225;28;20630;-93
2022/05/20 11:25:05;;;;;;;29.45;22.60;;;;;;;24.95;48.84;101258.91;5007932;28;20067;-93
2022/05/20 11:28:18;;;;;;;29.65;23.35;;;;;;;24.45;49.69;101252.28;5003886;28;20140;-94
2022/05/20 11:30:52;;;;;;;30.75;23.67;;;;;;;24.05;51.12;101250.91;4946819;28;20115;-93
2022/05/20 11:33:51;;;;;;;31.33;23.15;;;;;;;23.83;52.27;101254.09;4943453;28;20070;-93
2022/05/20 11:36:38;;;;;;;32.42;24.08;;;;;;;23.53;53.23;101247.94;4945511;28;20378;-94
2022/05/20 11:39:18;;;;;;;30.15;22.75;;;;;;;23.17;54.43;101247.00;4952495;28;20046;-92
2022/05/20 11:42:08;;;;;;;31.60;24.20;;;;;;;22.88;55.46;101250.66;4957381;28;20062;-92
2022/05/20 11:45:12;;;;;;;32.22;25.00;;;;;;;22.54;56.52;101249.47;4938750;28;20039;-93
2022/05/20 11:47:47;;;;;;;38.40;26.27;;;;;;;22.14;58.17;101247.81;4947584;28;20604;-93
2022/05/20 11:50:26;;;;;;;33.67;24.13;;;;;;;21.87;58.90;101245.78;4946522;29;20398;-92
2022/05/20 11:53:08;;;;;;;37.30;26.02;;;;;;;21.63;59.63;101221.78;4948175;28;20144;-92
2022/05/20 11:55:40;;;;;;;34.28;25.50;;;;;;;21.42;61.62;101202.09;4951777;28;20078;-94
2022/05/20 11:58:08;;;;;;;31.92;24.35;;;;;;;21.30;62.54;101204.88;4951393;28;20035;-92
2022/05/20 12:00:39;;;;;;;35.25;25.40;;;;;;;21.18;62.28;101211.38;4957404;29;20079;-94